createdAt,value
2022-12-13T00:04:40.262Z,13.75
2022-12-13T00:09:43.734Z,13.82
2022-12-13T00:14:45.999Z,12.07
2022-12-13T00:19:49.034Z,12.15
2022-12-13T00:24:51.531Z,12.02
2022-12-13T00:29:53.787Z,10.48
2022-12-13T00:34:56.012Z,10.63
2022-12-13T00:39:58.387Z,9.23
2022-12-13T00:45:00.664Z,8.95
2022-12-13T00:50:04.248Z,9.52
2022-12-13T00:55:07.267Z,6.78
2022-12-13T01:00:10.454Z,6.53
2022-12-13T01:05:24.036Z,5.07
2022-12-13T01:10:37.738Z,4.93
2022-12-13T01:15:47.837Z,3.92
2022-12-13T01:26:07.066Z,4.32
2022-12-13T01:31:11.940Z,2.90
2022-12-13T01:36:17.249Z,2.33
2022-12-13T01:41:27.247Z,2.33
2022-12-13T01:46:31.918Z,1.88
2022-12-13T01:51:44.981Z,1.58
2022-12-13T01:56:53.830Z,1.25
2022-12-13T02:02:03.784Z,2.15
2022-12-13T02:07:07.587Z,1.10
2022-12-13T02:12:10.068Z,1.10
2022-12-13T02:17:49.549Z,1.40
2022-12-13T02:23:36.026Z,1.30
2022-12-13T02:28:47.423Z,1.10
2022-12-13T02:34:17.506Z,1.73
2022-12-13T02:39:30.389Z,1.77
2022-12-13T02:44:42.590Z,2.40
2022-12-13T02:49:49.633Z,1.65
2022-12-13T02:54:53.984Z,1.67
2022-12-13T02:59:58.838Z,2.03
2022-12-13T03:05:57.743Z,2.05
2022-12-13T03:11:14.260Z,2.20
2022-12-13T03:16:26.081Z,2.33
2022-12-13T03:21:28.929Z,2.00
2022-12-13T03:26:31.382Z,1.33
2022-12-13T03:31:33.949Z,0.55
2022-12-13T03:36:36.378Z,0.73
2022-12-13T03:41:38.820Z,1.00
2022-12-13T03:46:41.264Z,0.82
2022-12-13T03:51:43.699Z,1.02
2022-12-13T03:56:46.053Z,0.73
2022-12-13T04:01:49.037Z,1.25
2022-12-13T04:06:51.363Z,1.10
2022-12-13T04:12:12.319Z,1.08
2022-12-13T04:17:14.715Z,1.10
2022-12-13T04:22:23.269Z,1.10
2022-12-13T04:32:29.262Z,1.40
2022-12-13T04:37:31.929Z,1.48
2022-12-13T04:42:34.620Z,2.88
2022-12-13T04:47:36.892Z,1.90
2022-12-13T04:52:40.086Z,1.50
2022-12-13T04:57:42.599Z,2.20
2022-12-13T05:02:44.984Z,1.98
2022-12-13T05:07:47.264Z,2.00
2022-12-13T05:12:49.586Z,2.53
2022-12-13T05:17:51.978Z,3.75
2022-12-13T05:22:59.331Z,3.40
2022-12-13T05:28:09.149Z,3.75
2022-12-13T05:33:25.008Z,3.72
2022-12-13T05:38:27.446Z,4.10
2022-12-13T05:43:43.156Z,3.55
2022-12-13T05:48:46.038Z,4.68
2022-12-13T05:53:53.073Z,5.47
2022-12-13T05:58:55.894Z,4.22
2022-12-13T06:03:58.290Z,4.57
2022-12-13T06:09:00.812Z,5.03
2022-12-13T06:14:03.100Z,6.20
2022-12-13T06:19:05.522Z,5.18
2022-12-13T06:24:09.226Z,6.90
2022-12-13T06:29:11.719Z,7.82
2022-12-13T06:34:15.465Z,6.40
2022-12-13T06:39:18.188Z,6.13
2022-12-13T06:44:20.620Z,5.75
2022-12-13T06:49:22.827Z,5.90
2022-12-13T06:54:25.142Z,6.80
2022-12-13T06:59:27.526Z,7.00
2022-12-13T07:04:31.103Z,8.20
2022-12-13T07:09:33.953Z,10.85
2022-12-13T07:14:40.713Z,7.90
2022-12-13T07:19:44.306Z,6.63
2022-12-13T07:24:46.890Z,7.93
2022-12-13T07:29:49.417Z,13.93
2022-12-13T07:34:51.722Z,7.00
2022-12-13T07:40:02.651Z,6.60
2022-12-13T07:45:06.413Z,6.80
2022-12-13T07:50:13.842Z,8.50
2022-12-13T07:55:33.018Z,7.60
2022-12-13T08:00:40.902Z,5.87
2022-12-13T08:05:48.636Z,5.72
2022-12-13T08:10:51.135Z,5.90
2022-12-13T08:15:59.578Z,6.07
2022-12-13T08:21:23.964Z,6.60
2022-12-13T08:26:29.348Z,5.95
2022-12-13T08:31:34.061Z,7.07
2022-12-13T08:36:36.442Z,6.20
2022-12-13T08:41:39.425Z,5.15
2022-12-13T08:46:42.046Z,4.90
2022-12-13T08:51:44.306Z,4.85
2022-12-13T08:56:46.486Z,4.70
2022-12-13T09:01:53.726Z,4.55
2022-12-13T09:06:56.868Z,4.68
2022-12-13T09:12:11.091Z,5.43
2022-12-13T09:17:26.418Z,4.82
2022-12-13T09:22:33.553Z,4.35
2022-12-13T09:27:39.980Z,4.10
2022-12-13T09:32:43.943Z,6.18
2022-12-13T09:37:46.450Z,4.47
2022-12-13T09:43:08.280Z,5.53
2022-12-13T09:48:22.319Z,5.65
2022-12-13T09:53:25.865Z,5.15
2022-12-13T09:58:37.641Z,6.18
2022-12-13T10:03:44.660Z,6.65
2022-12-13T10:08:59.256Z,7.40
2022-12-13T10:14:22.293Z,8.35
2022-12-13T10:19:41.400Z,7.78
2022-12-13T10:24:54.716Z,7.45
2022-12-13T10:30:01.282Z,7.00
2022-12-13T10:35:38.427Z,6.13
2022-12-13T10:40:45.764Z,7.07
2022-12-13T10:46:00.003Z,8.90
2022-12-13T10:51:09.560Z,6.18
2022-12-13T10:56:12.388Z,6.53
2022-12-13T11:01:22.541Z,7.72
2022-12-13T11:06:27.137Z,7.07
2022-12-13T11:11:30.939Z,6.97
2022-12-13T11:16:38.023Z,7.40
2022-12-13T11:21:40.297Z,6.40
2022-12-13T11:26:53.928Z,7.15
2022-12-13T11:32:02.995Z,5.43
2022-12-13T11:37:05.266Z,6.63
2022-12-13T11:42:25.822Z,5.38
2022-12-13T11:47:36.395Z,5.00
2022-12-13T11:52:50.254Z,4.88
2022-12-13T11:59:01.127Z,5.20
2022-12-13T12:03:59.604Z,5.75
2022-12-13T12:09:05.101Z,5.15
2022-12-13T12:14:36.889Z,5.60
2022-12-13T12:19:41.432Z,5.00
2022-12-13T12:24:52.238Z,5.20
2022-12-13T12:30:08.367Z,5.32
2022-12-13T12:35:45.799Z,5.93
2022-12-13T12:41:16.025Z,5.18
2022-12-13T12:47:01.573Z,6.30
2022-12-13T12:52:21.898Z,6.20
2022-12-13T12:57:51.315Z,6.95
2022-12-13T13:02:56.313Z,6.60
2022-12-13T13:08:14.782Z,5.88
2022-12-13T13:13:35.711Z,5.40
2022-12-13T13:18:49.883Z,4.72
2022-12-13T13:24:10.816Z,5.10
2022-12-13T13:29:27.767Z,5.60
2022-12-13T13:34:43.385Z,4.43
2022-12-13T13:40:02.033Z,4.88
2022-12-13T13:45:21.054Z,5.32
2022-12-13T13:50:46.558Z,5.07
2022-12-13T13:56:16.746Z,5.55
2022-12-13T14:01:31.222Z,5.10
2022-12-13T14:06:51.714Z,3.95
2022-12-13T14:12:30.387Z,2.30
2022-12-13T14:17:54.253Z,3.60
2022-12-13T14:23:21.480Z,4.57
2022-12-13T14:28:45.029Z,6.75
2022-12-13T14:33:48.323Z,5.65
2022-12-13T14:39:00.811Z,4.57
2022-12-13T14:44:27.363Z,5.32
2022-12-13T14:49:48.702Z,5.90
2022-12-13T14:54:58.085Z,6.78
2022-12-13T15:00:21.134Z,6.00
2022-12-13T15:05:51.084Z,6.07
2022-12-13T15:11:08.068Z,9.30
2022-12-13T15:16:26.132Z,7.10
2022-12-13T15:21:28.465Z,6.60
2022-12-13T15:26:32.748Z,7.57
2022-12-13T15:31:35.137Z,8.23
2022-12-13T15:36:39.178Z,8.13
2022-12-13T15:41:49.789Z,7.10
2022-12-13T15:46:53.717Z,16.10
2022-12-13T15:51:58.022Z,12.23
2022-12-13T15:57:00.198Z,12.48
2022-12-13T16:02:06.803Z,11.18
2022-12-13T16:07:22.997Z,12.45
2022-12-13T16:13:01.163Z,14.82
2022-12-13T16:18:19.887Z,10.43
2022-12-13T16:23:29.169Z,9.68
2022-12-13T16:28:31.550Z,9.00
2022-12-13T16:33:34.434Z,10.90
2022-12-13T16:38:37.408Z,10.65
2022-12-13T16:44:02.131Z,8.57
2022-12-13T16:49:18.218Z,11.35
2022-12-13T16:54:24.639Z,8.85
2022-12-13T16:59:28.613Z,7.45
2022-12-13T17:04:30.847Z,6.35
2022-12-13T17:09:35.515Z,8.65
2022-12-13T17:14:37.867Z,7.20
2022-12-13T17:19:40.124Z,6.65
2022-12-13T17:24:42.437Z,6.43
2022-12-13T17:29:44.964Z,5.22
2022-12-13T17:34:47.269Z,8.05
2022-12-13T17:39:50.214Z,5.88
2022-12-13T17:44:52.624Z,5.38
2022-12-13T17:49:54.898Z,5.50
2022-12-13T17:54:57.167Z,6.55
2022-12-13T18:00:00.370Z,8.13
2022-12-13T18:05:02.629Z,6.35
2022-12-13T18:10:05.518Z,7.22
2022-12-13T18:15:08.361Z,7.10
2022-12-13T18:20:12.007Z,6.78
2022-12-13T18:25:14.318Z,8.20
2022-12-13T18:30:16.681Z,7.90
2022-12-13T18:35:19.503Z,9.48
2022-12-13T18:40:21.779Z,8.60
2022-12-13T18:45:24.028Z,8.10
2022-12-13T18:50:26.348Z,9.18
2022-12-13T18:55:28.826Z,10.55
2022-12-13T19:00:31.581Z,10.48
2022-12-13T19:05:34.096Z,13.68
2022-12-13T19:10:36.513Z,12.20
2022-12-13T19:15:42.020Z,11.63
2022-12-13T19:20:48.876Z,18.00
2022-12-13T19:25:51.387Z,16.67
2022-12-13T19:30:53.750Z,18.00
2022-12-13T19:35:55.984Z,16.35
2022-12-13T19:40:58.319Z,17.20
2022-12-13T19:46:01.842Z,13.90
2022-12-13T19:51:07.416Z,12.90
2022-12-13T19:56:14.287Z,13.48
2022-12-13T20:01:17.902Z,12.93
2022-12-13T20:06:23.312Z,12.93
2022-12-13T20:11:25.719Z,12.05
2022-12-13T20:16:31.068Z,13.60
2022-12-13T20:21:33.546Z,14.20
2022-12-13T20:26:36.110Z,13.48
2022-12-13T20:31:40.421Z,13.30
2022-12-13T20:36:43.735Z,12.02
2022-12-13T20:41:45.968Z,13.98
2022-12-13T20:46:48.346Z,13.88
2022-12-13T20:51:51.058Z,15.00
2022-12-13T20:56:53.401Z,15.57
2022-12-13T21:01:55.737Z,16.63
2022-12-13T21:06:58.906Z,16.15
2022-12-13T21:12:01.179Z,15.38
2022-12-13T21:17:05.307Z,14.73
2022-12-13T21:22:07.617Z,14.18
2022-12-13T21:27:09.902Z,14.80
2022-12-13T21:32:12.195Z,17.38
2022-12-13T21:37:14.629Z,16.08
2022-12-13T21:42:16.913Z,16.58
2022-12-13T21:47:19.858Z,16.25
2022-12-13T21:52:24.492Z,17.08
2022-12-13T21:57:45.151Z,18.00
2022-12-13T22:02:47.567Z,20.40
2022-12-13T22:07:52.245Z,19.05
2022-12-13T22:12:54.594Z,20.25
2022-12-13T22:17:58.454Z,25.65
2022-12-13T22:23:00.817Z,30.42
2022-12-13T22:28:03.146Z,13.57
2022-12-13T22:33:05.444Z,9.70
2022-12-13T22:38:07.961Z,6.75
2022-12-13T22:43:10.498Z,7.38
2022-12-13T22:48:12.902Z,6.88
2022-12-13T22:53:15.079Z,8.18
2022-12-13T22:58:17.337Z,5.70
2022-12-13T23:03:19.616Z,6.75
2022-12-13T23:08:22.043Z,5.85
2022-12-13T23:13:24.268Z,5.63
2022-12-13T23:18:26.826Z,5.32
2022-12-13T23:23:30.633Z,4.60
2022-12-13T23:28:32.849Z,5.25
2022-12-13T23:33:35.986Z,5.18
2022-12-13T23:38:38.225Z,5.13
2022-12-13T23:43:41.846Z,5.28
2022-12-13T23:48:44.743Z,5.07
2022-12-13T23:53:47.309Z,5.60
2022-12-13T23:58:52.459Z,4.57
